Time;durP1;ratioP1;P1;durP2;ratioP2;P2;SDS_P1;SDS_P2;PMS_P1;PMS_P2;Temp;Humidity;BMP_temperature;BMP_pressure;BME280_temperature;BME280_humidity;BME280_pressure;Samples;Min_cycle;Max_cycle;Signal;HPM_P1;HPM_P2
2022/04/01 00:00:01;;;;;;;;;;;20.40;35.60;;;;;;5076482;28;19940;-46
2022/04/01 00:02:29;;;;;;;;;;;20.40;35.50;;;;;;5075500;28;19920;-51
2022/04/01 00:04:56;;;;;;;;;;;20.40;35.50;;;;;;5073034;28;19921;-44
2022/04/01 00:07:23;;;;;;;;;;;20.40;35.50;;;;;;5072310;28;19927;-45
2022/04/01 00:09:50;;;;;;;;;;;20.40;35.50;;;;;;5072934;28;19966;-45
2022/04/01 00:12:17;;;;;;;;;;;20.30;35.40;;;;;;5073733;28;19924;-44
2022/04/01 00:14:43;;;;;;;;;;;20.30;35.40;;;;;;5102210;28;19920;-48
2022/04/01 00:17:10;;;;;;;;;;;20.30;35.30;;;;;;5075833;28;19931;-49
2022/04/01 00:19:38;;;;;;;;;;;20.30;35.90;;;;;;5074002;28;19994;-47
2022/04/01 00:22:05;;;;;;;;;;;20.30;35.30;;;;;;5075847;28;19927;-44
2022/04/01 00:24:32;;;;;;;;;;;20.30;35.30;;;;;;5101732;28;19959;-45
2022/04/01 00:26:59;;;;;;;;;;;20.30;35.30;;;;;;5075168;28;19920;-43
2022/04/01 00:29:26;;;;;;;;;;;20.30;35.30;;;;;;5071104;28;20327;-44
2022/04/01 00:31:58;;;;;;;;;;;20.30;35.20;;;;;;5071220;28;19932;-45
2022/04/01 00:34:26;;;;;;;;;;;20.30;35.20;;;;;;5074110;28;19947;-47
2022/04/01 00:36:55;;;;;;;;;;;20.30;35.20;;;;;;5064355;28;19927;-49
2022/04/01 00:39:22;;;;;;;;;;;20.30;35.10;;;;;;5069377;28;20435;-44
2022/04/01 00:41:49;;;;;;;;;;;20.30;35.20;;;;;;5071225;28;19924;-48
2022/04/01 00:44:17;;;;;;;;;;;20.30;35.10;;;;;;5072810;28;19925;-46
2022/04/01 00:46:44;;;;;;;;;;;20.30;35.10;;;;;;5098664;28;20028;-44
2022/04/01 00:49:11;;;;;;;;;;;20.30;35.10;;;;;;5074728;28;19932;-47
2022/04/01 00:51:38;;;;;;;;;;;20.30;35.10;;;;;;5070667;28;19924;-44
2022/04/01 00:54:06;;;;;;;;;;;20.30;35.10;;;;;;5056894;28;19935;-45
2022/04/01 00:56:34;;;;;;;;;;;20.30;35.00;;;;;;5074277;28;19927;-44
2022/04/01 00:59:01;;;;;;;;;;;20.30;35.00;;;;;;5076320;28;19959;-44
2022/04/01 01:01:28;;;;;;;;;;;20.30;35.00;;;;;;5075968;28;20006;-42
2022/04/01 01:03:55;;;;;;;;;;;20.30;35.00;;;;;;5074454;28;19920;-43
2022/04/01 01:06:22;;;;;;;;;;;20.30;35.00;;;;;;5066033;28;20297;-44
2022/04/01 01:08:49;;;;;;;;;;;20.30;35.00;;;;;;5076625;28;19986;-45
2022/04/01 01:11:17;;;;;;;;;;;20.30;34.90;;;;;;5077116;28;19954;-43
2022/04/01 01:13:45;;;;;;;;;;;20.30;34.90;;;;;;5079740;28;19921;-43
2022/04/01 01:16:12;;;;;;;;;;;20.30;34.90;;;;;;5075141;28;19963;-43
2022/04/01 01:18:39;;;;;;;;;;;20.30;34.90;;;;;;5078924;28;19962;-46
2022/04/01 01:21:09;;;;;;;;;;;20.30;34.90;;;;;;5071444;28;19925;-45
2022/04/01 01:23:38;;;;;;;;;;;20.30;34.90;;;;;;5074057;28;19936;-44
2022/04/01 01:26:07;;;;;;;;;;;20.30;34.90;;;;;;5070162;28;19932;-47
2022/04/01 01:28:34;;;;;;;;;;;20.30;34.80;;;;;;5073567;28;19929;-47
2022/04/01 01:31:00;;;;;;;;;;;20.30;34.80;;;;;;5067410;28;19942;-44
2022/04/01 01:33:27;;;;;;;;;;;20.30;34.80;;;;;;5077603;28;19963;-47
2022/04/01 01:35:54;;;;;;;;;;;20.30;34.80;;;;;;5076808;28;19966;-44
2022/04/01 01:38:21;;;;;;;;;;;20.30;34.80;;;;;;5100174;28;19920;-48
2022/04/01 01:40:48;;;;;;;;;;;20.30;34.80;;;;;;5076334;28;20043;-51
2022/04/01 01:43:16;;;;;;;;;;;20.30;34.80;;;;;;5078692;28;19920;-44
2022/04/01 01:45:42;;;;;;;;;;;20.30;34.80;;;;;;5078325;28;19920;-47
2022/04/01 01:48:09;;;;;;;;;;;20.20;34.70;;;;;;5073537;28;20236;-45
2022/04/01 01:56:05;;;;;;;;;;;20.30;34.70;;;;;;5099805;28;19936;-44
2022/04/01 01:58:34;;;;;;;;;;;20.20;34.60;;;;;;5068380;28;20043;-44
2022/04/01 02:01:00;;;;;;;;;;;20.20;34.60;;;;;;5068476;28;19958;-43
2022/04/01 02:03:46;;;;;;;;;;;20.20;34.50;;;;;;5048366;28;19935;-47
2022/04/01 02:06:21;;;;;;;;;;;20.20;34.60;;;;;;5075037;28;19954;-46
2022/04/01 02:08:48;;;;;;;;;;;20.20;34.60;;;;;;5077311;28;19931;-44
2022/04/01 02:11:14;;;;;;;;;;;20.20;34.50;;;;;;5077815;28;20278;-45
2022/04/01 02:13:43;;;;;;;;;;;20.20;34.50;;;;;;5103541;28;19924;-42
2022/04/01 02:16:09;;;;;;;;;;;20.20;34.50;;;;;;5069420;28;20043;-47
2022/04/01 02:18:36;;;;;;;;;;;20.20;34.50;;;;;;5075648;28;19950;-43
2022/04/01 02:21:10;;;;;;;;;;;20.20;34.50;;;;;;5101507;28;20243;-47
2022/04/01 02:23:37;;;;;;;;;;;20.20;34.50;;;;;;5074885;28;19927;-49
2022/04/01 02:26:04;;;;;;;;;;;20.20;34.50;;;;;;5100271;28;19943;-44
2022/04/01 02:28:31;;;;;;;;;;;20.20;34.50;;;;;;5076939;28;19924;-46
2022/04/01 02:30:59;;;;;;;;;;;20.20;34.50;;;;;;5076280;28;20237;-44
2022/04/01 02:33:27;;;;;;;;;;;20.20;34.50;;;;;;5071219;28;19942;-46
2022/04/01 02:35:57;;;;;;;;;;;20.20;34.40;;;;;;5072126;28;19925;-46
2022/04/01 02:38:25;;;;;;;;;;;20.20;34.40;;;;;;5078155;28;20007;-47
2022/04/01 02:40:52;;;;;;;;;;;20.20;34.40;;;;;;5074458;28;19924;-45
2022/04/01 02:43:19;;;;;;;;;;;20.20;34.40;;;;;;5078223;28;19939;-43
2022/04/01 02:45:48;;;;;;;;;;;20.20;34.40;;;;;;5072044;28;19921;-44
2022/04/01 02:48:16;;;;;;;;;;;20.20;34.40;;;;;;5075924;28;20276;-48
2022/04/01 02:50:43;;;;;;;;;;;20.20;34.40;;;;;;5076905;28;19920;-46
2022/04/01 02:53:10;;;;;;;;;;;20.20;34.40;;;;;;5078253;28;19921;-46
2022/04/01 02:55:37;;;;;;;;;;;20.20;34.40;;;;;;5065934;28;19944;-45
2022/04/01 02:58:05;;;;;;;;;;;20.20;34.40;;;;;;5062858;28;19921;-49
2022/04/01 03:00:32;;;;;;;;;;;20.20;34.30;;;;;;5076501;28;19932;-47
2022/04/01 03:03:01;;;;;;;;;;;20.20;34.30;;;;;;5071331;28;21056;-49
2022/04/01 03:05:32;;;;;;;;;;;20.20;34.30;;;;;;5075874;28;20018;-47
2022/04/01 03:07:58;;;;;;;;;;;20.20;34.30;;;;;;5072763;28;19967;-46
2022/04/01 03:10:26;;;;;;;;;;;20.20;34.30;;;;;;5071874;28;19971;-45
2022/04/01 03:12:53;;;;;;;;;;;20.20;34.30;;;;;;5074526;28;19951;-45
2022/04/01 03:15:21;;;;;;;;;;;20.20;34.30;;;;;;5070242;28;19996;-46
2022/04/01 03:17:48;;;;;;;;;;;20.20;34.30;;;;;;5065405;28;19951;-44
2022/04/01 03:20:15;;;;;;;;;;;20.20;34.20;;;;;;5072270;28;19924;-47
2022/04/01 03:22:43;;;;;;;;;;;20.20;34.20;;;;;;5072478;28;19921;-46
2022/04/01 03:25:12;;;;;;;;;;;20.20;34.20;;;;;;5067397;28;19924;-45
2022/04/01 03:27:39;;;;;;;;;;;20.20;34.20;;;;;;5072778;28;20354;-46
2022/04/01 03:30:09;;;;;;;;;;;20.20;34.20;;;;;;5066930;28;19925;-45
2022/04/01 03:32:37;;;;;;;;;;;20.20;34.80;;;;;;5096098;28;19956;-46
2022/04/01 03:35:05;;;;;;;;;;;20.20;34.20;;;;;;5073106;28;19936;-48
2022/04/01 03:37:32;;;;;;;;;;;20.20;34.20;;;;;;5069851;28;19920;-46
2022/04/01 03:40:00;;;;;;;;;;;20.20;34.10;;;;;;5091090;28;19928;-44
2022/04/01 03:42:30;;;;;;;;;;;20.20;34.10;;;;;;5054675;28;19921;-45
2022/04/01 03:44:58;;;;;;;;;;;20.20;34.10;;;;;;5066494;28;19974;-44
2022/04/01 03:47:28;;;;;;;;;;;20.20;34.10;;;;;;5070492;28;19925;-42
2022/04/01 03:49:55;;;;;;;;;;;20.20;34.10;;;;;;5069442;28;20019;-48
2022/04/01 03:52:22;;;;;;;;;;;20.20;34.00;;;;;;5078263;28;19936;-47
2022/04/01 03:54:49;;;;;;;;;;;20.20;34.00;;;;;;5074161;28;19963;-46
2022/04/01 03:57:18;;;;;;;;;;;20.20;34.00;;;;;;5069860;28;19921;-46
2022/04/01 03:59:50;;;;;;;;;;;20.20;34.00;;;;;;5072573;28;19963;-46
2022/04/01 04:02:18;;;;;;;;;;;20.20;34.00;;;;;;5072444;28;19956;-44
2022/04/01 04:04:46;;;;;;;;;;;20.20;34.00;;;;;;5067090;28;20004;-48
2022/04/01 04:07:12;;;;;;;;;;;20.20;33.90;;;;;;5065595;28;20480;-47
2022/04/01 04:09:39;;;;;;;;;;;20.20;33.90;;;;;;5064828;28;19921;-46
2022/04/01 04:12:07;;;;;;;;;;;20.20;33.90;;;;;;5068268;28;19924;-48
2022/04/01 04:14:35;;;;;;;;;;;20.20;33.90;;;;;;5064697;28;19946;-48
2022/04/01 04:17:05;;;;;;;;;;;20.20;33.90;;;;;;5095674;28;19920;-44
2022/04/01 04:19:34;;;;;;;;;;;20.20;33.90;;;;;;5068860;28;20359;-48
2022/04/01 04:22:03;;;;;;;;;;;20.20;33.90;;;;;;5063004;28;19974;-43
2022/04/01 04:24:30;;;;;;;;;;;20.20;33.90;;;;;;5071474;28;19921;-46
2022/04/01 04:26:59;;;;;;;;;;;20.10;33.80;;;;;;5058544;28;19974;-45
2022/04/01 04:29:26;;;;;;;;;;;20.20;33.80;;;;;;5065879;28;19933;-46
2022/04/01 04:31:58;;;;;;;;;;;20.10;33.80;;;;;;5068599;28;19972;-44
2022/04/01 04:34:26;;;;;;;;;;;20.20;33.80;;;;;;5069034;28;19921;-45
2022/04/01 04:36:53;;;;;;;;;;;20.10;33.80;;;;;;5067512;28;19994;-44
2022/04/01 04:39:24;;;;;;;;;;;20.20;33.80;;;;;;5063403;28;20298;-42
2022/04/01 04:41:51;;;;;;;;;;;20.20;33.80;;;;;;5071418;28;19924;-46
2022/04/01 04:44:18;;;;;;;;;;;20.10;33.70;;;;;;5077355;28;19921;-46
2022/04/01 04:46:45;;;;;;;;;;;20.20;33.80;;;;;;5055078;28;20010;-49
2022/04/01 04:49:14;;;;;;;;;;;20.10;33.70;;;;;;5075836;28;19927;-49
2022/04/01 04:51:41;;;;;;;;;;;20.10;33.70;;;;;;5072330;28;19936;-46
2022/04/01 04:54:08;;;;;;;;;;;20.20;33.80;;;;;;5070990;28;19993;-47
2022/04/01 04:56:35;;;;;;;;;;;20.10;33.70;;;;;;5074379;28;19991;-47
2022/04/01 04:59:02;;;;;;;;;;;20.10;33.70;;;;;;5068970;28;20374;-49
2022/04/01 05:01:32;;;;;;;;;;;20.10;33.60;;;;;;5068479;28;19943;-46
2022/04/01 05:04:03;;;;;;;;;;;20.10;33.60;;;;;;5076065;28;19925;-45
2022/04/01 05:06:34;;;;;;;;;;;20.10;33.60;;;;;;5084549;28;19920;-48
2022/04/01 05:09:03;;;;;;;;;;;20.10;33.60;;;;;;5078439;28;19924;-47
2022/04/01 05:11:35;;;;;;;;;;;20.10;33.60;;;;;;5075897;28;19925;-46
2022/04/01 05:14:04;;;;;;;;;;;20.10;33.60;;;;;;5071983;28;19955;-46
2022/04/01 05:16:32;;;;;;;;;;;20.10;33.60;;;;;;5074339;28;19920;-44
2022/04/01 05:19:03;;;;;;;;;;;20.10;33.60;;;;;;5074969;28;19928;-47
2022/04/01 05:21:29;;;;;;;;;;;20.10;33.60;;;;;;5090827;28;19959;-45
2022/04/01 05:23:59;;;;;;;;;;;20.10;33.60;;;;;;5064273;28;19943;-50
2022/04/01 05:26:38;;;;;;;;;;;20.10;33.60;;;;;;5074806;28;19939;-50
2022/04/01 05:29:07;;;;;;;;;;;20.10;33.50;;;;;;5069064;28;19925;-46
2022/04/01 05:31:35;;;;;;;;;;;20.10;33.50;;;;;;5063408;28;19932;-49
2022/04/01 05:34:09;;;;;;;;;;;20.10;34.10;;;;;;5069355;28;19924;-49
2022/04/01 05:36:36;;;;;;;;;;;20.10;33.50;;;;;;5075918;28;19920;-45
2022/04/01 05:39:04;;;;;;;;;;;20.10;33.50;;;;;;5076308;28;20292;-45
2022/04/01 05:41:31;;;;;;;;;;;20.10;33.50;;;;;;5066049;28;19924;-46
2022/04/01 05:43:58;;;;;;;;;;;20.10;33.50;;;;;;5070405;28;19925;-45
2022/04/01 05:46:25;;;;;;;;;;;20.10;33.50;;;;;;5066145;28;19933;-44
2022/04/01 05:48:53;;;;;;;;;;;20.10;33.40;;;;;;5074151;28;19925;-48
2022/04/01 05:51:20;;;;;;;;;;;20.10;33.50;;;;;;5073012;28;19920;-47
2022/04/01 05:53:47;;;;;;;;;;;20.10;33.40;;;;;;5074122;28;19920;-44
2022/04/01 05:56:15;;;;;;;;;;;20.10;33.40;;;;;;5065082;28;19928;-43
2022/04/01 05:58:42;;;;;;;;;;;20.10;33.40;;;;;;5069622;28;20238;-46
2022/04/01 06:01:11;;;;;;;;;;;20.10;33.40;;;;;;5100720;28;19932;-44
2022/04/01 06:03:59;;;;;;;;;;;20.10;33.40;;;;;;5073573;28;19928;-45
2022/04/01 06:06:29;;;;;;;;;;;20.10;33.40;;;;;;5071705;28;19933;-44
2022/04/01 06:08:57;;;;;;;;;;;20.10;33.40;;;;;;5067906;28;19921;-46
2022/04/01 06:11:30;;;;;;;;;;;20.10;33.40;;;;;;5094347;28;20098;-46
2022/04/01 06:13:59;;;;;;;;;;;20.10;33.40;;;;;;5069154;28;19920;-51
2022/04/01 06:16:27;;;;;;;;;;;20.10;33.40;;;;;;5070064;28;20488;-45
2022/04/01 06:18:57;;;;;;;;;;;20.10;33.40;;;;;;5095486;28;19933;-46
2022/04/01 06:21:24;;;;;;;;;;;20.10;33.40;;;;;;5072757;28;19924;-48
2022/04/01 06:23:55;;;;;;;;;;;20.10;33.40;;;;;;5072575;28;19992;-49
2022/04/01 06:26:22;;;;;;;;;;;20.10;33.40;;;;;;5073892;28;20231;-49
2022/04/01 06:28:51;;;;;;;;;;;20.10;33.40;;;;;;5072529;28;20041;-47
2022/04/01 06:31:18;;;;;;;;;;;20.10;33.40;;;;;;5068473;28;19929;-47
2022/04/01 06:33:47;;;;;;;;;;;20.10;33.40;;;;;;5063903;28;19928;-45
2022/04/01 06:36:14;;;;;;;;;;;20.10;33.40;;;;;;5067639;28;19947;-48
2022/04/01 06:38:42;;;;;;;;;;;20.10;33.40;;;;;;5069506;28;19967;-45
2022/04/01 06:41:09;;;;;;;;;;;20.10;33.40;;;;;;5066986;28;19920;-46
2022/04/01 06:43:36;;;;;;;;;;;20.10;33.30;;;;;;5068731;28;19948;-42
2022/04/01 06:46:05;;;;;;;;;;;20.10;33.40;;;;;;5094047;28;19924;-46
2022/04/01 06:48:32;;;;;;;;;;;20.10;33.40;;;;;;5097567;28;19925;-49
2022/04/01 06:50:59;;;;;;;;;;;20.10;33.40;;;;;;5067744;28;19930;-46
2022/04/01 06:53:26;;;;;;;;;;;20.10;33.40;;;;;;5096360;28;19947;-43
2022/04/01 06:55:54;;;;;;;;;;;20.10;33.40;;;;;;5068495;28;20303;-48
2022/04/01 06:58:21;;;;;;;;;;;20.10;33.40;;;;;;5070466;28;19920;-49
2022/04/01 07:00:47;;;;;;;;;;;20.10;33.40;;;;;;5072363;28;20278;-47
2022/04/01 07:03:17;;;;;;;;;;;20.10;33.40;;;;;;5070709;28;21371;-46
2022/04/01 07:05:44;;;;;;;;;;;20.10;33.40;;;;;;5064290;28;19931;-48
2022/04/01 07:08:11;;;;;;;;;;;20.10;33.40;;;;;;5063433;28;19920;-43
2022/04/01 07:10:39;;;;;;;;;;;20.10;33.40;;;;;;5065680;28;19933;-44
2022/04/01 07:13:05;;;;;;;;;;;20.10;33.40;;;;;;5057979;28;19920;-44
2022/04/01 07:15:32;;;;;;;;;;;20.10;33.40;;;;;;5094836;28;20031;-44
2022/04/01 07:17:59;;;;;;;;;;;20.10;33.40;;;;;;5094538;28;19974;-46
2022/04/01 07:20:28;;;;;;;;;;;20.10;33.40;;;;;;5064810;28;20019;-45
2022/04/01 07:22:54;;;;;;;;;;;20.10;33.40;;;;;;5073329;28;19923;-49
2022/04/01 07:25:22;;;;;;;;;;;20.10;33.50;;;;;;5075336;28;19942;-43
2022/04/01 07:27:49;;;;;;;;;;;20.10;33.40;;;;;;5069924;28;19992;-45
2022/04/01 07:30:16;;;;;;;;;;;20.10;33.40;;;;;;5067794;28;19956;-44
2022/04/01 07:32:43;;;;;;;;;;;20.20;33.50;;;;;;5072189;28;19920;-43
2022/04/01 07:35:10;;;;;;;;;;;20.20;33.50;;;;;;5067034;28;19927;-45
2022/04/01 07:37:38;;;;;;;;;;;20.20;33.50;;;;;;5074345;28;19974;-47
2022/04/01 07:40:06;;;;;;;;;;;20.20;34.10;;;;;;5072997;28;19920;-43
2022/04/01 07:42:34;;;;;;;;;;;20.20;33.50;;;;;;5068291;28;19920;-46
2022/04/01 07:45:01;;;;;;;;;;;20.20;33.50;;;;;;5069033;28;19920;-43
2022/04/01 07:47:28;;;;;;;;;;;20.20;33.50;;;;;;5069967;28;19920;-44
2022/04/01 07:49:55;;;;;;;;;;;20.20;33.50;;;;;;5062262;28;19924;-45
2022/04/01 07:52:22;;;;;;;;;;;20.20;33.50;;;;;;5064399;28;19951;-43
2022/04/01 07:54:51;;;;;;;;;;;20.20;33.40;;;;;;5074035;28;19933;-45
2022/04/01 07:57:18;;;;;;;;;;;20.20;33.50;;;;;;5070279;28;19943;-46
2022/04/01 07:59:44;;;;;;;;;;;20.20;33.50;;;;;;5061415;28;20342;-44
2022/04/01 08:02:11;;;;;;;;;;;20.20;33.50;;;;;;5064838;28;19921;-46
2022/04/01 08:04:39;;;;;;;;;;;20.20;33.60;;;;;;5076541;28;20408;-46
2022/04/01 08:07:06;;;;;;;;;;;20.20;33.60;;;;;;5063380;28;19920;-45
2022/04/01 08:09:33;;;;;;;;;;;20.20;33.60;;;;;;5063554;28;20487;-45
2022/04/01 08:12:02;;;;;;;;;;;20.20;33.60;;;;;;5062433;28;19921;-44
2022/04/01 08:14:29;;;;;;;;;;;20.30;33.70;;;;;;5068289;28;20289;-48
2022/04/01 08:16:56;;;;;;;;;;;20.30;33.80;;;;;;5066418;28;19920;-42
2022/04/01 08:19:24;;;;;;;;;;;20.30;33.80;;;;;;5065994;28;20007;-46
2022/04/01 08:21:50;;;;;;;;;;;20.30;33.80;;;;;;5067821;28;19984;-44
2022/04/01 08:24:17;;;;;;;;;;;20.30;33.80;;;;;;5061592;28;19969;-43
2022/04/01 08:26:44;;;;;;;;;;;20.30;33.80;;;;;;5064709;28;20011;-48
2022/04/01 08:29:12;;;;;;;;;;;20.30;33.80;;;;;;5070498;28;19920;-45
2022/04/01 08:31:39;;;;;;;;;;;20.30;33.80;;;;;;5100798;27;20015;-47
2022/04/01 08:34:06;;;;;;;;;;;20.30;33.80;;;;;;5075660;28;19920;-49
2022/04/01 08:36:32;;;;;;;;;;;20.30;33.80;;;;;;5075641;28;19920;-45
2022/04/01 08:39:00;;;;;;;;;;;20.30;33.80;;;;;;5072694;28;19932;-47
2022/04/01 08:41:27;;;;;;;;;;;20.40;33.90;;;;;;5072998;28;19973;-46
2022/04/01 08:43:53;;;;;;;;;;;20.40;34.00;;;;;;5074586;28;19920;-47
2022/04/01 08:46:22;;;;;;;;;;;20.40;34.00;;;;;;5072727;28;19928;-44
2022/04/01 08:48:50;;;;;;;;;;;20.40;34.00;;;;;;5064533;28;20389;-47
2022/04/01 08:51:17;;;;;;;;;;;20.40;34.00;;;;;;5073810;28;19942;-44
2022/04/01 08:53:45;;;;;;;;;;;20.40;34.00;;;;;;5075886;28;19932;-45
2022/04/01 08:56:12;;;;;;;;;;;20.40;34.00;;;;;;5076049;28;19921;-44
2022/04/01 08:58:39;;;;;;;;;;;20.40;34.10;;;;;;5094054;28;19920;-46
2022/04/01 09:01:06;;;;;;;;;;;20.40;34.10;;;;;;5071524;28;20320;-46
2022/04/01 09:03:34;;;;;;;;;;;20.40;34.10;;;;;;5074907;28;19921;-48
2022/04/01 09:06:03;;;;;;;;;;;20.40;34.10;;;;;;5054676;28;19921;-48
2022/04/01 09:08:32;;;;;;;;;;;20.40;34.10;;;;;;5067324;28;20267;-43
2022/04/01 09:11:01;;;;;;;;;;;20.40;34.10;;;;;;5072159;28;19966;-46
2022/04/01 09:13:28;;;;;;;;;;;20.40;34.10;;;;;;5068361;28;19974;-43
2022/04/01 09:15:55;;;;;;;;;;;20.40;34.10;;;;;;5068829;28;19925;-44
2022/04/01 09:18:39;;;;;;;;;;;20.40;34.10;;;;;;5068646;28;19928;-47
2022/04/01 09:21:06;;;;;;;;;;;20.40;34.10;;;;;;5071800;28;19946;-45
2022/04/01 09:23:34;;;;;;;;;;;20.40;34.20;;;;;;5071535;28;20026;-43
2022/04/01 09:26:01;;;;;;;;;;;20.40;34.20;;;;;;5068892;28;20004;-44
2022/04/01 09:28:29;;;;;;;;;;;20.40;34.20;;;;;;5066821;28;19964;-45
2022/04/01 09:30:59;;;;;;;;;;;20.40;34.20;;;;;;5070901;28;19928;-46
2022/04/01 09:33:29;;;;;;;;;;;20.40;34.20;;;;;;5073787;28;20387;-43
2022/04/01 09:35:57;;;;;;;;;;;20.40;34.20;;;;;;5073357;28;19921;-48
2022/04/01 09:38:24;;;;;;;;;;;20.40;34.20;;;;;;5074943;28;19928;-42
2022/04/01 09:40:53;;;;;;;;;;;20.40;34.20;;;;;;5071043;28;19943;-46
2022/04/01 09:43:23;;;;;;;;;;;20.40;34.30;;;;;;5076352;28;19927;-45
2022/04/01 09:45:50;;;;;;;;;;;20.50;34.40;;;;;;5067992;28;20003;-43
2022/04/01 09:48:17;;;;;;;;;;;20.50;34.40;;;;;;5064419;28;19964;-42
2022/04/01 09:50:44;;;;;;;;;;;20.50;34.40;;;;;;5060418;28;19926;-47
2022/04/01 09:53:14;;;;;;;;;;;20.50;34.40;;;;;;5076421;28;19927;-45
2022/04/01 09:55:41;;;;;;;;;;;20.50;34.40;;;;;;5068022;28;19921;-43
2022/04/01 09:58:07;;;;;;;;;;;20.50;34.40;;;;;;5074802;28;19977;-48
2022/04/01 10:00:35;;;;;;;;;;;20.50;34.50;;;;;;5073433;28;20267;-46
2022/04/01 10:03:02;;;;;;;;;;;20.50;34.50;;;;;;5090176;28;20004;-46
2022/04/01 10:05:28;;;;;;;;;;;20.50;34.50;;;;;;5075708;28;19967;-42
2022/04/01 10:07:56;;;;;;;;;;;20.50;34.50;;;;;;5069421;28;19946;-43
2022/04/01 10:10:25;;;;;;;;;;;20.50;34.50;;;;;;5072677;28;19921;-45
2022/04/01 10:12:52;;;;;;;;;;;20.50;34.50;;;;;;5075607;28;19939;-50
2022/04/01 10:15:19;;;;;;;;;;;20.50;34.50;;;;;;5071110;28;19927;-47
2022/04/01 10:17:45;;;;;;;;;;;20.50;35.10;;;;;;5071714;28;19931;-44
2022/04/01 10:20:12;;;;;;;;;;;20.50;34.50;;;;;;5071391;28;19966;-42
2022/04/01 10:22:39;;;;;;;;;;;20.50;34.50;;;;;;5071368;28;20376;-45
2022/04/01 10:25:08;;;;;;;;;;;20.50;34.50;;;;;;5101319;28;20401;-42
2022/04/01 10:27:38;;;;;;;;;;;20.50;34.50;;;;;;5068430;28;19987;-46
2022/04/01 10:30:05;;;;;;;;;;;20.50;34.50;;;;;;5068855;28;19920;-44
2022/04/01 10:32:32;;;;;;;;;;;20.50;34.50;;;;;;5080797;28;20349;-43
2022/04/01 10:34:59;;;;;;;;;;;20.50;34.50;;;;;;5071471;28;19996;-50
2022/04/01 10:37:27;;;;;;;;;;;20.50;34.60;;;;;;5088539;28;20309;-43
2022/04/01 10:39:54;;;;;;;;;;;20.50;34.60;;;;;;5069771;28;19943;-42
2022/04/01 10:42:24;;;;;;;;;;;20.50;34.60;;;;;;5074466;28;19921;-44
2022/04/01 10:44:54;;;;;;;;;;;20.50;34.60;;;;;;5072623;28;19928;-42
2022/04/01 10:47:21;;;;;;;;;;;20.50;34.60;;;;;;5072977;28;19947;-47
2022/04/01 10:52:34;;;;;;;;;;;20.50;34.50;;;;;;5067912;28;19921;-46
2022/04/01 10:55:22;;;;;;;;;;;20.50;34.50;;;;;;5073420;28;20470;-43
2022/04/01 10:57:50;;;;;;;;;;;20.50;34.50;;;;;;5067146;28;19932;-49
2022/04/01 11:00:19;;;;;;;;;;;20.50;34.50;;;;;;5075118;28;19959;-44
2022/04/01 11:02:47;;;;;;;;;;;20.50;34.50;;;;;;5100819;28;19921;-46
2022/04/01 11:05:28;;;;;;;;;;;20.60;34.50;;;;;;5072302;28;19921;-45
2022/04/01 11:08:14;;;;;;;;;;;20.60;34.50;;;;;;5071464;28;19964;-45
2022/04/01 11:10:41;;;;;;;;;;;20.60;34.50;;;;;;5071861;28;19920;-43
2022/04/01 11:13:07;;;;;;;;;;;20.60;34.60;;;;;;5069863;28;19927;-46
2022/04/01 11:15:35;;;;;;;;;;;20.60;34.60;;;;;;5076129;28;19991;-48
2022/04/01 11:18:02;;;;;;;;;;;20.60;34.10;;;;;;5078191;28;19920;-44
2022/04/01 11:20:30;;;;;;;;;;;20.60;34.60;;;;;;5062133;28;19995;-46
2022/04/01 11:23:01;;;;;;;;;;;20.60;34.60;;;;;;5094354;27;19975;-46
2022/04/01 11:25:50;;;;;;;;;;;20.60;34.70;;;;;;5066701;28;19947;-48
2022/04/01 11:28:17;;;;;;;;;;;20.60;34.70;;;;;;5056112;28;19921;-44
2022/04/01 11:30:45;;;;;;;;;;;20.60;34.70;;;;;;5076502;28;19924;-45
2022/04/01 11:33:13;;;;;;;;;;;20.60;34.70;;;;;;5070551;28;19991;-47
2022/04/01 11:35:40;;;;;;;;;;;20.60;34.70;;;;;;5067177;28;19920;-50
2022/04/01 11:38:07;;;;;;;;;;;20.60;34.70;;;;;;5059773;28;19935;-44
2022/04/01 11:40:34;;;;;;;;;;;20.60;34.70;;;;;;5064444;28;19920;-43
2022/04/01 11:43:03;;;;;;;;;;;20.60;34.70;;;;;;5078164;28;19926;-46
2022/04/01 11:45:30;;;;;;;;;;;20.60;34.70;;;;;;5063468;28;19960;-46
2022/04/01 11:47:58;;;;;;;;;;;20.60;34.70;;;;;;5066741;28;19935;-46
2022/04/01 11:50:25;;;;;;;;;;;20.60;34.70;;;;;;5071215;28;20024;-44
2022/04/01 11:52:54;;;;;;;;;;;20.60;34.70;;;;;;5062251;28;20016;-46
2022/04/01 11:55:21;;;;;;;;;;;20.60;34.80;;;;;;5073943;28;20383;-44
2022/04/01 11:57:48;;;;;;;;;;;20.60;34.80;;;;;;5075462;28;19920;-42
2022/04/01 12:00:16;;;;;;;;;;;20.60;34.80;;;;;;5070024;28;19932;-45
2022/04/01 12:02:43;;;;;;;;;;;20.60;34.80;;;;;;5070690;28;19920;-43
2022/04/01 12:05:11;;;;;;;;;;;20.60;34.80;;;;;;5074106;28;20369;-43
2022/04/01 12:10:23;;;;;;;;;;;20.60;34.80;;;;;;5091792;28;19947;-42
2022/04/01 12:12:54;;;;;;;;;;;20.60;34.90;;;;;;5098004;28;19928;-43
2022/04/01 12:15:29;;;;;;;;;;;20.60;34.90;;;;;;5067109;28;19935;-43
2022/04/01 12:17:56;;;;;;;;;;;20.60;34.90;;;;;;5069330;28;20040;-42
2022/04/01 12:20:26;;;;;;;;;;;20.60;34.90;;;;;;5068588;28;20316;-43
2022/04/01 12:22:54;;;;;;;;;;;20.60;34.90;;;;;;5075928;28;19920;-46
2022/04/01 12:25:20;;;;;;;;;;;20.60;34.90;;;;;;5066386;28;20350;-44
2022/04/01 12:27:51;;;;;;;;;;;20.60;34.90;;;;;;5070986;28;19925;-43
2022/04/01 12:30:27;;;;;;;;;;;20.60;35.00;;;;;;5061791;28;19924;-45
2022/04/01 12:32:54;;;;;;;;;;;20.60;34.90;;;;;;5070589;28;19924;-43
2022/04/01 12:35:22;;;;;;;;;;;20.60;34.90;;;;;;5071390;28;19959;-44
2022/04/01 12:38:03;;;;;;;;;;;20.60;34.90;;;;;;5067044;28;19920;-43
2022/04/01 12:40:34;;;;;;;;;;;20.60;35.00;;;;;;5067851;28;19974;-43
2022/04/01 12:43:01;;;;;;;;;;;20.60;35.00;;;;;;5074928;28;19995;-42
2022/04/01 12:45:28;;;;;;;;;;;20.60;35.00;;;;;;5064108;28;19978;-42
2022/04/01 12:47:56;;;;;;;;;;;20.60;35.00;;;;;;5065656;28;19927;-42
2022/04/01 12:50:33;;;;;;;;;;;20.60;35.00;;;;;;5059110;28;19950;-43
2022/04/01 12:53:12;;;;;;;;;;;20.60;35.00;;;;;;5058007;28;19990;-45
2022/04/01 12:55:39;;;;;;;;;;;20.60;35.00;;;;;;5094901;28;20343;-46
2022/04/01 12:58:12;;;;;;;;;;;20.60;35.00;;;;;;5090373;28;20015;-55
2022/04/01 13:00:39;;;;;;;;;;;20.60;35.10;;;;;;5065552;28;20376;-46
2022/04/01 13:03:06;;;;;;;;;;;20.60;34.80;;;;;;5061502;28;19972;-45
2022/04/01 13:05:32;;;;;;;;;;;20.60;34.40;;;;;;5065481;28;19921;-45
2022/04/01 13:07:59;;;;;;;;;;;20.60;34.00;;;;;;5060880;28;19989;-47
2022/04/01 13:10:27;;;;;;;;;;;20.60;33.50;;;;;;5061078;28;19928;-43
2022/04/01 13:12:55;;;;;;;;;;;20.50;33.10;;;;;;5083323;28;20376;-52
2022/04/01 13:15:23;;;;;;;;;;;20.50;33.20;;;;;;5075060;28;19927;-43
2022/04/01 13:17:50;;;;;;;;;;;20.50;33.30;;;;;;5075692;28;19921;-42
2022/04/01 13:20:18;;;;;;;;;;;20.50;33.60;;;;;;5074539;28;19921;-43
2022/04/01 13:22:45;;;;;;;;;;;20.50;33.80;;;;;;5115169;28;19924;-43
2022/04/01 13:25:12;;;;;;;;;;;20.50;33.90;;;;;;5085588;28;19927;-43
2022/04/01 13:27:41;;;;;;;;;;;20.50;34.00;;;;;;5067344;28;19920;-45
2022/04/01 13:30:08;;;;;;;;;;;20.50;34.10;;;;;;5062634;28;20006;-44
2022/04/01 13:32:36;;;;;;;;;;;20.50;34.30;;;;;;5063617;28;20012;-44
2022/04/01 13:35:04;;;;;;;;;;;20.50;34.40;;;;;;5079498;28;19928;-45
2022/04/01 13:37:30;;;;;;;;;;;20.50;34.40;;;;;;5092605;27;20242;-48
2022/04/01 13:39:58;;;;;;;;;;;20.50;34.50;;;;;;5061991;28;19920;-53
2022/04/01 13:42:25;;;;;;;;;;;20.50;34.50;;;;;;5076952;28;20361;-45
2022/04/01 13:44:53;;;;;;;;;;;20.50;34.50;;;;;;5054320;28;19921;-48
2022/04/01 13:47:20;;;;;;;;;;;20.50;34.50;;;;;;5078539;28;19928;-43
2022/04/01 13:49:48;;;;;;;;;;;20.50;34.50;;;;;;5096015;28;19920;-44
2022/04/01 13:52:15;;;;;;;;;;;20.50;34.60;;;;;;5082535;28;20010;-47
2022/04/01 13:54:42;;;;;;;;;;;20.50;34.60;;;;;;5074465;28;19955;-44
2022/04/01 13:57:10;;;;;;;;;;;20.50;34.60;;;;;;5071501;28;19924;-44
2022/04/01 13:59:39;;;;;;;;;;;20.50;34.60;;;;;;5095763;28;20384;-43
2022/04/01 14:02:08;;;;;;;;;;;20.50;34.70;;;;;;5069099;28;19925;-43
2022/04/01 14:04:35;;;;;;;;;;;20.50;34.70;;;;;;5075945;28;20026;-43
2022/04/01 14:07:07;;;;;;;;;;;20.50;34.70;;;;;;5073669;28;19933;-46
2022/04/01 14:09:34;;;;;;;;;;;20.60;34.80;;;;;;5064229;28;19978;-43
2022/04/01 14:12:01;;;;;;;;;;;20.60;34.80;;;;;;5075154;28;20292;-44
2022/04/01 14:14:27;;;;;;;;;;;20.60;34.80;;;;;;5072513;28;19920;-46
2022/04/01 14:16:54;;;;;;;;;;;20.60;34.90;;;;;;5081220;28;19927;-44
2022/04/01 14:19:22;;;;;;;;;;;20.60;34.90;;;;;;5077772;28;19981;-47
2022/04/01 14:21:49;;;;;;;;;;;20.60;34.90;;;;;;5073844;28;20315;-44
2022/04/01 14:24:16;;;;;;;;;;;20.60;34.90;;;;;;5097150;28;19921;-45
2022/04/01 14:26:43;;;;;;;;;;;20.60;34.90;;;;;;5073052;28;19920;-47
2022/04/01 14:32:01;;;;;;;;;;;20.60;34.90;;;;;;5107545;28;19925;-44
2022/04/01 14:34:30;;;;;;;;;;;20.60;35.00;;;;;;5078070;28;19920;-43